sensor_id;sensor_type;location;lat;lon;timestamp;P1;durP1;ratioP1;P2;durP2;ratioP2
42338;SDS011;27993;45.392;10.918;2024-01-06T00:02:11;5.60;;;2.83;;
42338;SDS011;27993;45.392;10.918;2024-01-06T00:04:42;2.30;;;1.60;;
42338;SDS011;27993;45.392;10.918;2024-01-06T00:07:13;4.97;;;2.10;;
42338;SDS011;27993;45.392;10.918;2024-01-06T00:09:44;4.45;;;2.20;;
42338;SDS011;27993;45.392;10.918;2024-01-06T00:12:15;3.10;;;1.57;;
42338;SDS011;27993;45.392;10.918;2024-01-06T00:14:45;2.80;;;1.40;;
42338;SDS011;27993;45.392;10.918;2024-01-06T00:17:16;1.90;;;1.30;;
42338;SDS011;27993;45.392;10.918;2024-01-06T00:19:47;3.23;;;1.67;;
42338;SDS011;27993;45.392;10.918;2024-01-06T00:22:20;3.03;;;1.50;;
42338;SDS011;27993;45.392;10.918;2024-01-06T00:24:51;2.67;;;1.90;;
42338;SDS011;27993;45.392;10.918;2024-01-06T00:27:22;4.77;;;1.63;;
42338;SDS011;27993;45.392;10.918;2024-01-06T00:29:52;3.83;;;1.27;;
42338;SDS011;27993;45.392;10.918;2024-01-06T00:32:23;2.13;;;1.37;;
42338;SDS011;27993;45.392;10.918;2024-01-06T00:34:54;2.87;;;1.83;;
42338;SDS011;27993;45.392;10.918;2024-01-06T00:37:24;2.00;;;1.30;;
42338;SDS011;27993;45.392;10.918;2024-01-06T00:39:55;2.03;;;1.07;;
42338;SDS011;27993;45.392;10.918;2024-01-06T00:42:25;1.73;;;1.33;;
42338;SDS011;27993;45.392;10.918;2024-01-06T00:44:56;2.83;;;0.93;;
42338;SDS011;27993;45.392;10.918;2024-01-06T00:47:26;1.80;;;1.13;;
42338;SDS011;27993;45.392;10.918;2024-01-06T00:49:57;1.53;;;1.10;;
42338;SDS011;27993;45.392;10.918;2024-01-06T00:52:28;1.80;;;1.03;;
42338;SDS011;27993;45.392;10.918;2024-01-06T00:54:58;7.03;;;1.17;;
42338;SDS011;27993;45.392;10.918;2024-01-06T00:57:29;2.73;;;1.20;;
42338;SDS011;27993;45.392;10.918;2024-01-06T00:59:59;3.27;;;1.30;;
42338;SDS011;27993;45.392;10.918;2024-01-06T01:02:30;1.90;;;1.20;;
42338;SDS011;27993;45.392;10.918;2024-01-06T01:05:01;3.80;;;2.00;;
42338;SDS011;27993;45.392;10.918;2024-01-06T01:07:32;3.47;;;1.97;;
42338;SDS011;27993;45.392;10.918;2024-01-06T01:10:02;5.43;;;2.30;;
42338;SDS011;27993;45.392;10.918;2024-01-06T01:12:36;3.37;;;1.60;;
42338;SDS011;27993;45.392;10.918;2024-01-06T01:15:07;2.40;;;1.50;;
42338;SDS011;27993;45.392;10.918;2024-01-06T01:17:38;4.40;;;2.15;;
42338;SDS011;27993;45.392;10.918;2024-01-06T01:20:08;2.70;;;1.70;;
42338;SDS011;27993;45.392;10.918;2024-01-06T01:22:39;3.93;;;2.90;;
42338;SDS011;27993;45.392;10.918;2024-01-06T01:25:10;8.37;;;3.00;;
42338;SDS011;27993;45.392;10.918;2024-01-06T01:27:42;5.55;;;2.37;;
42338;SDS011;27993;45.392;10.918;2024-01-06T01:30:12;2.37;;;1.83;;
42338;SDS011;27993;45.392;10.918;2024-01-06T01:32:44;3.72;;;2.33;;
42338;SDS011;27993;45.392;10.918;2024-01-06T01:35:14;3.13;;;1.87;;
42338;SDS011;27993;45.392;10.918;2024-01-06T01:37:45;5.60;;;1.87;;
42338;SDS011;27993;45.392;10.918;2024-01-06T01:40:15;1.70;;;1.20;;
42338;SDS011;27993;45.392;10.918;2024-01-06T01:42:46;2.50;;;1.63;;
42338;SDS011;27993;45.392;10.918;2024-01-06T01:45:19;5.82;;;2.00;;
42338;SDS011;27993;45.392;10.918;2024-01-06T01:47:50;3.37;;;2.10;;
42338;SDS011;27993;45.392;10.918;2024-01-06T01:50:21;4.47;;;1.90;;
42338;SDS011;27993;45.392;10.918;2024-01-06T01:55:24;2.72;;;1.83;;
42338;SDS011;27993;45.392;10.918;2024-01-06T01:57:55;3.53;;;2.10;;
42338;SDS011;27993;45.392;10.918;2024-01-06T02:00:25;3.10;;;1.73;;
42338;SDS011;27993;45.392;10.918;2024-01-06T02:02:58;1.85;;;1.40;;
42338;SDS011;27993;45.392;10.918;2024-01-06T02:05:29;1.90;;;1.10;;
42338;SDS011;27993;45.392;10.918;2024-01-06T02:08:00;1.87;;;1.23;;
42338;SDS011;27993;45.392;10.918;2024-01-06T02:10:30;1.60;;;1.30;;
42338;SDS011;27993;45.392;10.918;2024-01-06T02:13:10;5.17;;;1.57;;
42338;SDS011;27993;45.392;10.918;2024-01-06T02:15:42;2.92;;;1.90;;
42338;SDS011;27993;45.392;10.918;2024-01-06T02:18:12;2.87;;;1.90;;
42338;SDS011;27993;45.392;10.918;2024-01-06T02:20:43;3.17;;;2.10;;
42338;SDS011;27993;45.392;10.918;2024-01-06T02:23:14;3.22;;;1.80;;
42338;SDS011;27993;45.392;10.918;2024-01-06T02:25:45;5.93;;;1.60;;
42338;SDS011;27993;45.392;10.918;2024-01-06T02:28:15;3.23;;;1.87;;
42338;SDS011;27993;45.392;10.918;2024-01-06T02:30:46;1.57;;;1.37;;
42338;SDS011;27993;45.392;10.918;2024-01-06T02:33:17;2.87;;;1.93;;
42338;SDS011;27993;45.392;10.918;2024-01-06T02:38:19;5.15;;;1.25;;
42338;SDS011;27993;45.392;10.918;2024-01-06T02:40:50;2.50;;;1.50;;
42338;SDS011;27993;45.392;10.918;2024-01-06T02:43:21;1.17;;;1.00;;
42338;SDS011;27993;45.392;10.918;2024-01-06T02:45:53;1.52;;;1.33;;
42338;SDS011;27993;45.392;10.918;2024-01-06T02:48:23;2.03;;;1.30;;
42338;SDS011;27993;45.392;10.918;2024-01-06T02:50:54;1.07;;;0.97;;
42338;SDS011;27993;45.392;10.918;2024-01-06T02:53:24;1.50;;;0.83;;
42338;SDS011;27993;45.392;10.918;2024-01-06T02:55:55;0.93;;;0.83;;
42338;SDS011;27993;45.392;10.918;2024-01-06T02:58:26;1.27;;;1.03;;
42338;SDS011;27993;45.392;10.918;2024-01-06T03:00:56;1.33;;;0.80;;
42338;SDS011;27993;45.392;10.918;2024-01-06T03:03:27;0.90;;;0.80;;
42338;SDS011;27993;45.392;10.918;2024-01-06T03:05:57;1.97;;;1.03;;
42338;SDS011;27993;45.392;10.918;2024-01-06T03:08:28;1.10;;;0.70;;
42338;SDS011;27993;45.392;10.918;2024-01-06T03:10:59;2.13;;;0.90;;
42338;SDS011;27993;45.392;10.918;2024-01-06T03:13:29;0.97;;;0.73;;
42338;SDS011;27993;45.392;10.918;2024-01-06T03:16:03;1.03;;;0.80;;
42338;SDS011;27993;45.392;10.918;2024-01-06T03:18:35;0.80;;;0.77;;
42338;SDS011;27993;45.392;10.918;2024-01-06T03:21:15;1.37;;;0.67;;
42338;SDS011;27993;45.392;10.918;2024-01-06T03:23:48;0.85;;;0.60;;
42338;SDS011;27993;45.392;10.918;2024-01-06T03:26:19;1.40;;;0.80;;
42338;SDS011;27993;45.392;10.918;2024-01-06T03:28:49;3.30;;;1.13;;
42338;SDS011;27993;45.392;10.918;2024-01-06T03:31:20;0.60;;;0.60;;
42338;SDS011;27993;45.392;10.918;2024-01-06T03:36:24;1.48;;;0.98;;
42338;SDS011;27993;45.392;10.918;2024-01-06T03:38:55;0.60;;;0.50;;
42338;SDS011;27993;45.392;10.918;2024-01-06T03:41:25;0.70;;;0.60;;
42338;SDS011;27993;45.392;10.918;2024-01-06T03:43:56;3.73;;;0.90;;
42338;SDS011;27993;45.392;10.918;2024-01-06T03:46:27;0.98;;;0.70;;
42338;SDS011;27993;45.392;10.918;2024-01-06T03:48:58;1.13;;;0.87;;
42338;SDS011;27993;45.392;10.918;2024-01-06T03:51:28;1.53;;;0.70;;
42338;SDS011;27993;45.392;10.918;2024-01-06T03:53:59;10.47;;;0.67;;
42338;SDS011;27993;45.392;10.918;2024-01-06T03:56:30;0.77;;;0.63;;
42338;SDS011;27993;45.392;10.918;2024-01-06T03:59:00;8.17;;;0.80;;
42338;SDS011;27993;45.392;10.918;2024-01-06T04:01:31;0.70;;;0.67;;
42338;SDS011;27993;45.392;10.918;2024-01-06T04:04:05;8.00;;;1.27;;
42338;SDS011;27993;45.392;10.918;2024-01-06T04:06:36;1.80;;;1.30;;
42338;SDS011;27993;45.392;10.918;2024-01-06T04:09:06;1.07;;;0.83;;
42338;SDS011;27993;45.392;10.918;2024-01-06T04:11:37;4.17;;;1.17;;
42338;SDS011;27993;45.392;10.918;2024-01-06T04:14:08;1.87;;;1.03;;
42338;SDS011;27993;45.392;10.918;2024-01-06T04:16:38;1.53;;;0.83;;
42338;SDS011;27993;45.392;10.918;2024-01-06T04:19:09;3.17;;;1.47;;
42338;SDS011;27993;45.392;10.918;2024-01-06T04:21:42;1.12;;;1.02;;
42338;SDS011;27993;45.392;10.918;2024-01-06T04:24:12;3.03;;;1.10;;
42338;SDS011;27993;45.392;10.918;2024-01-06T04:26:43;0.93;;;0.80;;
42338;SDS011;27993;45.392;10.918;2024-01-06T04:29:15;2.15;;;1.08;;
42338;SDS011;27993;45.392;10.918;2024-01-06T04:31:45;0.77;;;0.70;;
42338;SDS011;27993;45.392;10.918;2024-01-06T04:34:16;2.07;;;1.00;;
42338;SDS011;27993;45.392;10.918;2024-01-06T04:36:46;1.07;;;0.87;;
42338;SDS011;27993;45.392;10.918;2024-01-06T04:41:49;1.40;;;0.90;;
42338;SDS011;27993;45.392;10.918;2024-01-06T04:44:20;1.60;;;0.70;;
42338;SDS011;27993;45.392;10.918;2024-01-06T04:49:22;5.12;;;0.80;;
42338;SDS011;27993;45.392;10.918;2024-01-06T04:51:53;1.23;;;0.77;;
42338;SDS011;27993;45.392;10.918;2024-01-06T04:54:23;2.03;;;1.00;;
42338;SDS011;27993;45.392;10.918;2024-01-06T04:56:54;1.23;;;0.90;;
42338;SDS011;27993;45.392;10.918;2024-01-06T04:59:26;2.00;;;1.40;;
42338;SDS011;27993;45.392;10.918;2024-01-06T05:01:57;2.30;;;1.23;;
42338;SDS011;27993;45.392;10.918;2024-01-06T05:04:28;1.27;;;1.17;;
42338;SDS011;27993;45.392;10.918;2024-01-06T05:07:00;1.25;;;1.00;;
42338;SDS011;27993;45.392;10.918;2024-01-06T05:09:34;1.42;;;1.05;;
42338;SDS011;27993;45.392;10.918;2024-01-06T05:12:05;2.07;;;1.50;;
42338;SDS011;27993;45.392;10.918;2024-01-06T05:14:36;1.17;;;0.90;;
42338;SDS011;27993;45.392;10.918;2024-01-06T05:17:06;2.20;;;1.30;;
42338;SDS011;27993;45.392;10.918;2024-01-06T05:19:39;2.00;;;1.20;;
42338;SDS011;27993;45.392;10.918;2024-01-06T05:22:13;1.50;;;1.33;;
42338;SDS011;27993;45.392;10.918;2024-01-06T05:24:47;1.85;;;1.33;;
42338;SDS011;27993;45.392;10.918;2024-01-06T05:27:17;1.73;;;1.10;;
42338;SDS011;27993;45.392;10.918;2024-01-06T05:29:54;1.80;;;1.20;;
42338;SDS011;27993;45.392;10.918;2024-01-06T05:39:10;1.95;;;1.33;;
42338;SDS011;27993;45.392;10.918;2024-01-06T05:48:43;3.12;;;1.60;;
42338;SDS011;27993;45.392;10.918;2024-01-06T05:51:45;2.42;;;1.50;;
42338;SDS011;27993;45.392;10.918;2024-01-06T05:54:19;2.00;;;1.48;;
42338;SDS011;27993;45.392;10.918;2024-01-06T05:56:55;2.70;;;1.67;;
42338;SDS011;27993;45.392;10.918;2024-01-06T05:59:34;2.35;;;1.60;;
42338;SDS011;27993;45.392;10.918;2024-01-06T06:02:15;7.20;;;1.37;;
42338;SDS011;27993;45.392;10.918;2024-01-06T06:04:48;1.50;;;1.30;;
42338;SDS011;27993;45.392;10.918;2024-01-06T06:07:19;2.77;;;1.80;;
42338;SDS011;27993;45.392;10.918;2024-01-06T06:09:52;2.78;;;1.70;;
42338;SDS011;27993;45.392;10.918;2024-01-06T06:12:25;2.20;;;1.48;;
42338;SDS011;27993;45.392;10.918;2024-01-06T06:14:59;2.70;;;1.57;;
42338;SDS011;27993;45.392;10.918;2024-01-06T06:17:35;2.62;;;1.37;;
42338;SDS011;27993;45.392;10.918;2024-01-06T06:20:08;2.10;;;1.52;;
42338;SDS011;27993;45.392;10.918;2024-01-06T06:22:42;4.00;;;2.20;;
42338;SDS011;27993;45.392;10.918;2024-01-06T06:25:16;3.53;;;2.17;;
42338;SDS011;27993;45.392;10.918;2024-01-06T06:44:45;2.58;;;1.75;;
42338;SDS011;27993;45.392;10.918;2024-01-06T06:47:16;3.40;;;2.10;;
42338;SDS011;27993;45.392;10.918;2024-01-06T06:49:49;2.87;;;1.40;;
42338;SDS011;27993;45.392;10.918;2024-01-06T06:52:20;5.37;;;2.13;;
42338;SDS011;27993;45.392;10.918;2024-01-06T06:54:50;2.63;;;1.60;;
42338;SDS011;27993;45.392;10.918;2024-01-06T06:57:22;2.35;;;1.87;;
42338;SDS011;27993;45.392;10.918;2024-01-06T06:59:54;1.52;;;1.20;;
42338;SDS011;27993;45.392;10.918;2024-01-06T07:02:24;1.90;;;1.57;;
42338;SDS011;27993;45.392;10.918;2024-01-06T07:12:15;2.97;;;1.50;;
42338;SDS011;27993;45.392;10.918;2024-01-06T07:15:26;5.05;;;2.70;;
42338;SDS011;27993;45.392;10.918;2024-01-06T07:17:59;3.78;;;2.78;;
42338;SDS011;27993;45.392;10.918;2024-01-06T07:20:47;3.72;;;2.05;;
42338;SDS011;27993;45.392;10.918;2024-01-06T07:23:28;3.58;;;2.25;;
42338;SDS011;27993;45.392;10.918;2024-01-06T07:25:58;4.13;;;2.33;;
42338;SDS011;27993;45.392;10.918;2024-01-06T07:28:29;3.97;;;2.50;;
42338;SDS011;27993;45.392;10.918;2024-01-06T07:31:00;5.53;;;2.73;;
42338;SDS011;27993;45.392;10.918;2024-01-06T07:33:34;3.47;;;1.90;;
42338;SDS011;27993;45.392;10.918;2024-01-06T07:36:05;4.57;;;2.80;;
42338;SDS011;27993;45.392;10.918;2024-01-06T07:38:36;4.55;;;3.33;;
42338;SDS011;27993;45.392;10.918;2024-01-06T07:41:06;10.40;;;3.93;;
42338;SDS011;27993;45.392;10.918;2024-01-06T07:43:37;6.10;;;3.77;;
42338;SDS011;27993;45.392;10.918;2024-01-06T07:46:08;8.33;;;3.57;;
42338;SDS011;27993;45.392;10.918;2024-01-06T07:48:39;6.80;;;3.25;;
42338;SDS011;27993;45.392;10.918;2024-01-06T07:51:10;6.00;;;3.80;;
42338;SDS011;27993;45.392;10.918;2024-01-06T07:53:40;3.83;;;2.93;;
42338;SDS011;27993;45.392;10.918;2024-01-06T07:56:11;2.97;;;2.17;;
42338;SDS011;27993;45.392;10.918;2024-01-06T07:58:41;7.00;;;3.43;;
42338;SDS011;27993;45.392;10.918;2024-01-06T08:01:12;4.43;;;2.70;;
42338;SDS011;27993;45.392;10.918;2024-01-06T08:03:43;8.17;;;4.03;;
42338;SDS011;27993;45.392;10.918;2024-01-06T08:06:14;4.10;;;3.00;;
42338;SDS011;27993;45.392;10.918;2024-01-06T08:08:44;7.53;;;4.63;;
42338;SDS011;27993;45.392;10.918;2024-01-06T08:11:15;5.37;;;3.00;;
42338;SDS011;27993;45.392;10.918;2024-01-06T08:13:46;4.17;;;2.93;;
42338;SDS011;27993;45.392;10.918;2024-01-06T08:16:18;4.93;;;2.90;;
42338;SDS011;27993;45.392;10.918;2024-01-06T08:18:49;4.87;;;3.35;;
42338;SDS011;27993;45.392;10.918;2024-01-06T08:21:19;6.63;;;4.23;;
42338;SDS011;27993;45.392;10.918;2024-01-06T08:23:50;4.20;;;2.77;;
42338;SDS011;27993;45.392;10.918;2024-01-06T08:26:21;4.53;;;3.50;;
42338;SDS011;27993;45.392;10.918;2024-01-06T08:28:51;6.17;;;3.87;;
42338;SDS011;27993;45.392;10.918;2024-01-06T08:31:22;5.67;;;2.70;;
42338;SDS011;27993;45.392;10.918;2024-01-06T08:33:53;7.43;;;3.73;;
42338;SDS011;27993;45.392;10.918;2024-01-06T08:36:23;5.17;;;3.10;;
42338;SDS011;27993;45.392;10.918;2024-01-06T08:38:54;4.53;;;2.77;;
42338;SDS011;27993;45.392;10.918;2024-01-06T08:41:25;2.57;;;1.80;;
42338;SDS011;27993;45.392;10.918;2024-01-06T08:43:56;3.37;;;2.17;;
42338;SDS011;27993;45.392;10.918;2024-01-06T08:46:26;3.03;;;1.97;;
42338;SDS011;27993;45.392;10.918;2024-01-06T08:48:58;7.15;;;2.53;;
42338;SDS011;27993;45.392;10.918;2024-01-06T08:51:30;5.57;;;2.67;;
42338;SDS011;27993;45.392;10.918;2024-01-06T08:54:01;2.53;;;1.87;;
42338;SDS011;27993;45.392;10.918;2024-01-06T08:56:34;4.50;;;2.08;;
42338;SDS011;27993;45.392;10.918;2024-01-06T08:59:05;3.40;;;1.93;;
42338;SDS011;27993;45.392;10.918;2024-01-06T09:01:35;10.43;;;3.83;;
42338;SDS011;27993;45.392;10.918;2024-01-06T09:06:41;4.37;;;2.67;;
42338;SDS011;27993;45.392;10.918;2024-01-06T09:09:11;6.60;;;3.30;;
42338;SDS011;27993;45.392;10.918;2024-01-06T09:11:43;5.90;;;4.05;;
42338;SDS011;27993;45.392;10.918;2024-01-06T09:17:14;6.70;;;4.20;;
42338;SDS011;27993;45.392;10.918;2024-01-06T09:19:45;6.23;;;4.97;;
42338;SDS011;27993;45.392;10.918;2024-01-06T09:22:17;14.55;;;7.62;;
42338;SDS011;27993;45.392;10.918;2024-01-06T09:24:48;6.57;;;5.50;;
42338;SDS011;27993;45.392;10.918;2024-01-06T09:27:19;8.40;;;5.80;;
42338;SDS011;27993;45.392;10.918;2024-01-06T09:29:49;12.17;;;6.90;;
42338;SDS011;27993;45.392;10.918;2024-01-06T09:32:44;7.25;;;5.37;;
42338;SDS011;27993;45.392;10.918;2024-01-06T09:35:18;6.00;;;4.47;;
42338;SDS011;27993;45.392;10.918;2024-01-06T09:37:49;6.55;;;4.95;;
42338;SDS011;27993;45.392;10.918;2024-01-06T09:46:11;6.68;;;4.65;;
42338;SDS011;27993;45.392;10.918;2024-01-06T09:51:28;9.32;;;4.18;;
42338;SDS011;27993;45.392;10.918;2024-01-06T09:54:00;4.97;;;3.33;;
42338;SDS011;27993;45.392;10.918;2024-01-06T09:56:32;6.55;;;3.55;;
42338;SDS011;27993;45.392;10.918;2024-01-06T10:01:35;4.95;;;3.20;;
42338;SDS011;27993;45.392;10.918;2024-01-06T10:04:06;5.95;;;3.47;;
42338;SDS011;27993;45.392;10.918;2024-01-06T10:06:36;5.70;;;3.67;;
42338;SDS011;27993;45.392;10.918;2024-01-06T10:09:07;4.50;;;3.33;;
42338;SDS011;27993;45.392;10.918;2024-01-06T10:11:38;3.50;;;2.70;;
42338;SDS011;27993;45.392;10.918;2024-01-06T10:14:11;8.82;;;3.35;;
42338;SDS011;27993;45.392;10.918;2024-01-06T10:16:42;10.40;;;4.80;;
42338;SDS011;27993;45.392;10.918;2024-01-06T10:19:13;5.83;;;3.77;;
42338;SDS011;27993;45.392;10.918;2024-01-06T10:21:44;8.23;;;3.83;;
42338;SDS011;27993;45.392;10.918;2024-01-06T10:24:17;10.77;;;3.40;;
42338;SDS011;27993;45.392;10.918;2024-01-06T10:26:48;13.45;;;5.62;;
42338;SDS011;27993;45.392;10.918;2024-01-06T10:29:19;4.63;;;3.90;;
42338;SDS011;27993;45.392;10.918;2024-01-06T10:31:49;5.30;;;4.20;;
42338;SDS011;27993;45.392;10.918;2024-01-06T10:34:24;6.47;;;3.58;;
42338;SDS011;27993;45.392;10.918;2024-01-06T10:36:55;8.07;;;3.50;;
42338;SDS011;27993;45.392;10.918;2024-01-06T10:39:27;9.25;;;5.12;;
42338;SDS011;27993;45.392;10.918;2024-01-06T10:41:59;6.15;;;3.92;;
42338;SDS011;27993;45.392;10.918;2024-01-06T10:44:31;7.20;;;4.50;;
42338;SDS011;27993;45.392;10.918;2024-01-06T10:47:03;3.60;;;2.28;;
42338;SDS011;27993;45.392;10.918;2024-01-06T10:49:35;4.03;;;2.55;;
42338;SDS011;27993;45.392;10.918;2024-01-06T10:54:37;5.85;;;3.10;;
42338;SDS011;27993;45.392;10.918;2024-01-06T10:57:10;13.68;;;5.68;;
42338;SDS011;27993;45.392;10.918;2024-01-06T10:59:41;16.15;;;5.85;;
42338;SDS011;27993;45.392;10.918;2024-01-06T11:02:12;9.50;;;5.05;;
42338;SDS011;27993;45.392;10.918;2024-01-06T11:04:46;6.15;;;3.87;;
42338;SDS011;27993;45.392;10.918;2024-01-06T11:07:19;12.65;;;6.60;;
42338;SDS011;27993;45.392;10.918;2024-01-06T11:12:30;23.87;;;11.82;;
42338;SDS011;27993;45.392;10.918;2024-01-06T11:15:00;21.20;;;10.33;;
42338;SDS011;27993;45.392;10.918;2024-01-06T11:17:50;13.07;;;6.20;;
42338;SDS011;27993;45.392;10.918;2024-01-06T11:20:25;14.65;;;7.65;;
42338;SDS011;27993;45.392;10.918;2024-01-06T11:23:18;11.23;;;6.75;;
42338;SDS011;27993;45.392;10.918;2024-01-06T11:25:52;7.07;;;4.10;;
42338;SDS011;27993;45.392;10.918;2024-01-06T11:28:23;5.35;;;3.33;;
42338;SDS011;27993;45.392;10.918;2024-01-06T11:31:05;10.48;;;5.90;;
42338;SDS011;27993;45.392;10.918;2024-01-06T11:33:42;6.03;;;3.70;;
42338;SDS011;27993;45.392;10.918;2024-01-06T11:36:19;6.35;;;3.97;;
42338;SDS011;27993;45.392;10.918;2024-01-06T11:38:50;7.28;;;4.57;;
42338;SDS011;27993;45.392;10.918;2024-01-06T11:44:18;14.50;;;5.97;;
42338;SDS011;27993;45.392;10.918;2024-01-06T11:46:51;11.68;;;7.18;;
42338;SDS011;27993;45.392;10.918;2024-01-06T11:49:26;10.40;;;6.37;;
42338;SDS011;27993;45.392;10.918;2024-01-06T11:51:58;13.38;;;7.25;;
42338;SDS011;27993;45.392;10.918;2024-01-06T11:57:00;14.23;;;7.82;;
42338;SDS011;27993;45.392;10.918;2024-01-06T11:59:31;12.43;;;7.23;;
42338;SDS011;27993;45.392;10.918;2024-01-06T12:02:01;13.37;;;8.03;;
42338;SDS011;27993;45.392;10.918;2024-01-06T12:04:32;14.77;;;7.70;;
42338;SDS011;27993;45.392;10.918;2024-01-06T12:07:09;11.70;;;7.90;;
42338;SDS011;27993;45.392;10.918;2024-01-06T12:09:44;11.20;;;7.30;;
42338;SDS011;27993;45.392;10.918;2024-01-06T12:12:15;15.77;;;9.23;;
42338;SDS011;27993;45.392;10.918;2024-01-06T12:14:46;21.40;;;9.48;;
42338;SDS011;27993;45.392;10.918;2024-01-06T12:17:17;18.57;;;10.10;;
42338;SDS011;27993;45.392;10.918;2024-01-06T12:19:50;16.08;;;9.35;;
42338;SDS011;27993;45.392;10.918;2024-01-06T12:22:21;16.15;;;8.98;;
42338;SDS011;27993;45.392;10.918;2024-01-06T12:24:52;16.47;;;9.43;;
42338;SDS011;27993;45.392;10.918;2024-01-06T12:27:24;16.30;;;10.17;;
42338;SDS011;27993;45.392;10.918;2024-01-06T12:29:55;15.50;;;9.77;;
42338;SDS011;27993;45.392;10.918;2024-01-06T12:32:25;15.87;;;10.53;;
42338;SDS011;27993;45.392;10.918;2024-01-06T12:34:56;16.20;;;9.83;;
42338;SDS011;27993;45.392;10.918;2024-01-06T12:37:28;16.02;;;9.85;;
42338;SDS011;27993;45.392;10.918;2024-01-06T12:39:59;15.87;;;10.63;;
42338;SDS011;27993;45.392;10.918;2024-01-06T12:42:29;14.10;;;9.60;;
42338;SDS011;27993;45.392;10.918;2024-01-06T12:45:00;12.40;;;8.17;;
42338;SDS011;27993;45.392;10.918;2024-01-06T12:47:30;21.67;;;8.90;;
42338;SDS011;27993;45.392;10.918;2024-01-06T12:50:01;24.03;;;12.53;;
42338;SDS011;27993;45.392;10.918;2024-01-06T12:52:34;36.50;;;14.85;;
42338;SDS011;27993;45.392;10.918;2024-01-06T12:55:05;15.37;;;9.73;;
42338;SDS011;27993;45.392;10.918;2024-01-06T13:00:07;12.98;;;8.75;;
42338;SDS011;27993;45.392;10.918;2024-01-06T13:02:40;17.40;;;9.57;;
42338;SDS011;27993;45.392;10.918;2024-01-06T13:05:11;21.07;;;11.33;;
42338;SDS011;27993;45.392;10.918;2024-01-06T13:07:42;15.63;;;9.70;;
42338;SDS011;27993;45.392;10.918;2024-01-06T13:10:13;10.90;;;7.43;;
42338;SDS011;27993;45.392;10.918;2024-01-06T13:12:43;14.07;;;8.03;;
42338;SDS011;27993;45.392;10.918;2024-01-06T13:15:14;15.57;;;8.83;;
42338;SDS011;27993;45.392;10.918;2024-01-06T13:17:44;14.50;;;8.90;;
42338;SDS011;27993;45.392;10.918;2024-01-06T13:20:16;17.05;;;10.38;;
42338;SDS011;27993;45.392;10.918;2024-01-06T13:22:47;12.17;;;8.30;;
42338;SDS011;27993;45.392;10.918;2024-01-06T13:25:18;13.57;;;8.93;;
42338;SDS011;27993;45.392;10.918;2024-01-06T13:27:50;15.55;;;8.43;;
42338;SDS011;27993;45.392;10.918;2024-01-06T13:30:21;13.00;;;8.80;;
42338;SDS011;27993;45.392;10.918;2024-01-06T13:32:52;11.37;;;7.40;;
42338;SDS011;27993;45.392;10.918;2024-01-06T13:37:55;12.55;;;7.05;;
42338;SDS011;27993;45.392;10.918;2024-01-06T13:40:25;12.37;;;8.00;;
42338;SDS011;27993;45.392;10.918;2024-01-06T13:42:57;9.87;;;6.53;;
42338;SDS011;27993;45.392;10.918;2024-01-06T13:48:00;9.30;;;6.70;;
42338;SDS011;27993;45.392;10.918;2024-01-06T13:50:30;9.03;;;6.00;;
42338;SDS011;27993;45.392;10.918;2024-01-06T13:53:02;8.75;;;5.82;;
42338;SDS011;27993;45.392;10.918;2024-01-06T13:55:33;12.80;;;4.95;;
42338;SDS011;27993;45.392;10.918;2024-01-06T13:58:04;7.67;;;5.13;;
42338;SDS011;27993;45.392;10.918;2024-01-06T14:00:35;8.23;;;5.43;;
42338;SDS011;27993;45.392;10.918;2024-01-06T14:03:06;7.28;;;4.55;;
42338;SDS011;27993;45.392;10.918;2024-01-06T14:05:37;7.10;;;4.20;;
42338;SDS011;27993;45.392;10.918;2024-01-06T14:08:07;6.70;;;4.17;;
42338;SDS011;27993;45.392;10.918;2024-01-06T14:10:38;11.27;;;5.97;;
42338;SDS011;27993;45.392;10.918;2024-01-06T14:13:09;21.53;;;11.20;;
42338;SDS011;27993;45.392;10.918;2024-01-06T14:15:39;9.60;;;6.50;;
42338;SDS011;27993;45.392;10.918;2024-01-06T14:18:10;8.77;;;6.27;;
42338;SDS011;27993;45.392;10.918;2024-01-06T14:20:42;10.63;;;5.70;;
42338;SDS011;27993;45.392;10.918;2024-01-06T14:23:13;12.37;;;5.90;;
42338;SDS011;27993;45.392;10.918;2024-01-06T14:25:43;7.63;;;5.37;;
42338;SDS011;27993;45.392;10.918;2024-01-06T14:28:14;8.90;;;5.00;;
42338;SDS011;27993;45.392;10.918;2024-01-06T14:30:44;8.00;;;5.50;;
42338;SDS011;27993;45.392;10.918;2024-01-06T14:33:15;6.17;;;3.70;;
42338;SDS011;27993;45.392;10.918;2024-01-06T14:35:46;8.97;;;5.50;;
42338;SDS011;27993;45.392;10.918;2024-01-06T14:38:16;7.03;;;4.30;;
42338;SDS011;27993;45.392;10.918;2024-01-06T14:40:47;7.47;;;3.90;;
42338;SDS011;27993;45.392;10.918;2024-01-06T14:43:18;9.20;;;4.83;;
42338;SDS011;27993;45.392;10.918;2024-01-06T14:45:48;6.83;;;5.03;;
42338;SDS011;27993;45.392;10.918;2024-01-06T14:48:19;5.43;;;4.37;;
42338;SDS011;27993;45.392;10.918;2024-01-06T14:50:50;8.30;;;5.47;;
42338;SDS011;27993;45.392;10.918;2024-01-06T14:53:21;6.07;;;3.85;;
42338;SDS011;27993;45.392;10.918;2024-01-06T14:55:51;10.87;;;5.23;;
42338;SDS011;27993;45.392;10.918;2024-01-06T14:58:23;7.85;;;4.90;;
42338;SDS011;27993;45.392;10.918;2024-01-06T15:00:53;12.47;;;6.10;;
42338;SDS011;27993;45.392;10.918;2024-01-06T15:03:24;7.77;;;4.57;;
42338;SDS011;27993;45.392;10.918;2024-01-06T15:05:55;10.57;;;4.43;;
42338;SDS011;27993;45.392;10.918;2024-01-06T15:08:25;10.43;;;4.63;;
42338;SDS011;27993;45.392;10.918;2024-01-06T15:10:57;11.32;;;4.97;;
42338;SDS011;27993;45.392;10.918;2024-01-06T15:13:28;8.45;;;4.65;;
42338;SDS011;27993;45.392;10.918;2024-01-06T15:16:01;10.60;;;6.47;;
42338;SDS011;27993;45.392;10.918;2024-01-06T15:18:32;9.10;;;4.60;;
42338;SDS011;27993;45.392;10.918;2024-01-06T15:21:03;8.52;;;5.62;;
42338;SDS011;27993;45.392;10.918;2024-01-06T15:23:33;8.57;;;4.90;;
42338;SDS011;27993;45.392;10.918;2024-01-06T15:26:04;7.00;;;4.47;;
42338;SDS011;27993;45.392;10.918;2024-01-06T15:28:35;10.00;;;6.07;;
42338;SDS011;27993;45.392;10.918;2024-01-06T15:31:05;9.90;;;5.57;;
42338;SDS011;27993;45.392;10.918;2024-01-06T15:33:37;6.20;;;3.95;;
42338;SDS011;27993;45.392;10.918;2024-01-06T15:36:12;14.45;;;4.70;;
42338;SDS011;27993;45.392;10.918;2024-01-06T15:38:42;6.87;;;3.67;;
42338;SDS011;27993;45.392;10.918;2024-01-06T15:41:13;6.90;;;3.80;;
42338;SDS011;27993;45.392;10.918;2024-01-06T15:43:44;7.18;;;4.47;;
42338;SDS011;27993;45.392;10.918;2024-01-06T15:46:15;6.70;;;4.37;;
42338;SDS011;27993;45.392;10.918;2024-01-06T15:48:50;12.60;;;6.50;;
42338;SDS011;27993;45.392;10.918;2024-01-06T15:51:21;12.73;;;7.03;;
42338;SDS011;27993;45.392;10.918;2024-01-06T15:53:53;9.60;;;5.53;;
42338;SDS011;27993;45.392;10.918;2024-01-06T15:56:24;10.70;;;4.97;;
42338;SDS011;27993;45.392;10.918;2024-01-06T15:58:54;7.17;;;4.00;;
42338;SDS011;27993;45.392;10.918;2024-01-06T16:03:57;10.13;;;6.32;;
42338;SDS011;27993;45.392;10.918;2024-01-06T16:06:27;6.13;;;4.73;;
42338;SDS011;27993;45.392;10.918;2024-01-06T16:08:58;8.03;;;4.80;;
42338;SDS011;27993;45.392;10.918;2024-01-06T16:11:29;11.77;;;5.77;;
42338;SDS011;27993;45.392;10.918;2024-01-06T16:13:59;10.00;;;6.33;;
42338;SDS011;27993;45.392;10.918;2024-01-06T16:16:30;7.30;;;4.20;;
42338;SDS011;27993;45.392;10.918;2024-01-06T16:19:01;7.70;;;4.60;;
42338;SDS011;27993;45.392;10.918;2024-01-06T16:21:31;8.93;;;5.50;;
42338;SDS011;27993;45.392;10.918;2024-01-06T16:24:02;11.57;;;5.90;;
42338;SDS011;27993;45.392;10.918;2024-01-06T16:26:33;12.50;;;6.97;;